Time;durP1;ratioP1;P1;durP2;ratioP2;P2;SDS_P1;SDS_P2;PMS_P1;PMS_P2;Temp;Humidity;BMP_temperature;BMP_pressure;BME280_temperature;BME280_humidity;BME280_pressure;Samples;Min_cycle;Max_cycle;Signal;HPM_P1;HPM_P2
2024/02/25 00:04:26;;;;;;;0.50;0.50;;;6.10;96.30;;;;;;10413515;28;20226;-76
2024/02/25 00:09:30;;;;;;;0.40;0.40;;;6.00;96.30;;;;;;10415847;28;20615;-77
2024/02/25 00:14:32;;;;;;;0.40;0.40;;;5.90;96.30;;;;;;10422184;28;20218;-77
2024/02/25 00:19:34;;;;;;;0.37;0.37;;;5.90;96.40;;;;;;10418860;28;20222;-77
2024/02/25 00:24:38;;;;;;;0.60;0.60;;;5.90;96.80;;;;;;10418624;28;20270;-77
2024/02/25 00:29:40;;;;;;;0.40;0.40;;;5.90;96.90;;;;;;10432297;28;20264;-77
2024/02/25 00:34:43;;;;;;;0.40;0.40;;;5.90;97.30;;;;;;10440982;28;20709;-77
2024/02/25 00:39:46;;;;;;;0.40;0.40;;;5.90;97.00;;;;;;10440472;28;20222;-77
2024/02/25 00:44:49;;;;;;;0.30;0.30;;;6.00;97.00;;;;;;10441186;28;20228;-77
2024/02/25 00:49:52;;;;;;;0.40;0.40;;;6.00;96.80;;;;;;10431792;28;20228;-77
2024/02/25 00:54:55;;;;;;;0.30;0.30;;;6.00;96.70;;;;;;10435734;28;20230;-77
2024/02/25 00:59:58;;;;;;;0.40;0.40;;;6.00;96.20;;;;;;10428438;28;20194;-77
2024/02/25 01:05:00;;;;;;;0.40;0.40;;;5.90;96.40;;;;;;10441147;28;20217;-77
2024/02/25 01:10:04;;;;;;;0.40;0.40;;;5.80;96.50;;;;;;10437092;28;20209;-77
2024/02/25 01:15:08;;;;;;;0.40;0.40;;;5.80;96.70;;;;;;10436758;28;20229;-76
2024/02/25 01:20:10;;;;;;;0.40;0.40;;;5.80;96.70;;;;;;10427409;28;20256;-77
2024/02/25 01:25:14;;;;;;;0.50;0.50;;;5.80;96.80;;;;;;10442044;28;20228;-77
2024/02/25 01:30:17;;;;;;;0.40;0.40;;;5.80;96.70;;;;;;10434525;28;20198;-77
2024/02/25 01:35:19;;;;;;;0.40;0.40;;;5.80;97.00;;;;;;10442097;28;20703;-77
2024/02/25 01:40:23;;;;;;;0.40;0.40;;;5.80;97.10;;;;;;10435226;28;20619;-77
2024/02/25 01:45:25;;;;;;;0.40;0.40;;;5.80;97.00;;;;;;10426293;28;20213;-77
2024/02/25 01:50:28;;;;;;;0.40;0.40;;;5.80;96.80;;;;;;10428300;28;20228;-77
2024/02/25 01:55:35;;;;;;;0.40;0.40;;;5.80;96.50;;;;;;10430135;28;20298;-77
2024/02/25 02:00:38;;;;;;;0.40;0.40;;;5.80;96.50;;;;;;10430094;28;20683;-77
2024/02/25 02:05:40;;;;;;;0.50;0.50;;;5.80;96.50;;;;;;10438608;28;20631;-77
2024/02/25 02:10:44;;;;;;;0.40;0.40;;;5.80;96.80;;;;;;10430394;28;20228;-77
2024/02/25 02:15:46;;;;;;;0.40;0.40;;;5.80;96.90;;;;;;10425394;28;20279;-77
2024/02/25 02:20:50;;;;;;;0.40;0.40;;;5.90;96.90;;;;;;10429818;28;20189;-77
2024/02/25 02:25:52;;;;;;;0.40;0.40;;;5.90;96.80;;;;;;10440968;28;20217;-77
2024/02/25 02:30:55;;;;;;;0.50;0.50;;;5.90;97.10;;;;;;10432981;28;20208;-78
2024/02/25 02:35:58;;;;;;;0.40;0.40;;;6.00;96.70;;;;;;10439323;28;20218;-77
2024/02/25 02:41:01;;;;;;;0.50;0.50;;;6.00;96.60;;;;;;10447143;28;20201;-77
2024/02/25 02:46:04;;;;;;;0.40;0.40;;;5.90;96.40;;;;;;10434628;28;20490;-77
2024/02/25 02:51:09;;;;;;;0.50;0.50;;;5.90;96.30;;;;;;10443455;28;20611;-77
2024/02/25 02:56:11;;;;;;;0.40;0.40;;;5.90;96.40;;;;;;10437386;28;20217;-77
2024/02/25 03:01:14;;;;;;;0.50;0.50;;;5.90;96.40;;;;;;10448162;28;20198;-77
2024/02/25 03:06:19;;;;;;;0.40;0.40;;;5.80;96.50;;;;;;10432005;28;20198;-77
2024/02/25 03:11:22;;;;;;;0.50;0.50;;;5.80;96.70;;;;;;10433186;28;20222;-77
2024/02/25 03:16:24;;;;;;;0.50;0.50;;;5.80;96.50;;;;;;10430659;28;20221;-77
2024/02/25 03:21:28;;;;;;;0.50;0.50;;;5.80;96.50;;;;;;10448185;28;20214;-77
2024/02/25 03:26:30;;;;;;;0.60;0.60;;;5.80;96.70;;;;;;10448491;28;20201;-77
2024/02/25 03:31:33;;;;;;;0.50;0.50;;;5.70;96.60;;;;;;10447191;28;20758;-77
2024/02/25 03:36:37;;;;;;;0.43;0.43;;;5.70;96.60;;;;;;10447841;28;20222;-77
2024/02/25 03:41:39;;;;;;;0.70;0.70;;;5.70;96.80;;;;;;10446298;28;20271;-77
2024/02/25 03:46:43;;;;;;;0.40;0.40;;;5.80;96.90;;;;;;10437312;28;20201;-77
2024/02/25 03:51:47;;;;;;;0.50;0.50;;;5.80;96.90;;;;;;10449079;28;20678;-77
2024/02/25 03:56:49;;;;;;;0.60;0.60;;;5.80;96.90;;;;;;10446442;28;20226;-77
2024/02/25 04:01:51;;;;;;;0.47;0.47;;;5.90;97.00;;;;;;10448053;28;20205;-77
2024/02/25 04:06:55;;;;;;;0.90;0.90;;;5.90;96.90;;;;;;10445652;28;20244;-77
2024/02/25 04:11:57;;;;;;;0.70;0.70;;;5.90;96.90;;;;;;10450430;28;20647;-77
2024/02/25 04:17:00;;;;;;;0.80;0.80;;;5.90;96.90;;;;;;10445133;28;20213;-77
2024/02/25 04:22:03;;;;;;;0.70;0.70;;;5.90;96.90;;;;;;10451303;28;20221;-77
2024/02/25 04:27:06;;;;;;;0.67;0.67;;;6.00;96.80;;;;;;10444760;28;20201;-77
2024/02/25 04:32:08;;;;;;;0.50;0.50;;;6.00;96.70;;;;;;10449716;28;20615;-77
2024/02/25 04:37:12;;;;;;;0.77;0.77;;;6.00;96.30;;;;;;10445387;28;20659;-77
2024/02/25 04:42:14;;;;;;;0.70;0.70;;;6.10;95.80;;;;;;10443962;28;20217;-77
2024/02/25 04:47:16;;;;;;;0.73;0.73;;;6.10;95.90;;;;;;10426146;28;20196;-77
2024/02/25 04:52:21;;;;;;;0.67;0.67;;;6.20;95.80;;;;;;10441624;28;20222;-77
2024/02/25 04:57:23;;;;;;;0.97;0.97;;;6.30;95.40;;;;;;10443382;28;20214;-77
2024/02/25 05:02:25;;;;;;;0.70;0.70;;;6.40;95.30;;;;;;10437880;28;20727;-77
2024/02/25 05:07:29;;;;;;;0.70;0.70;;;6.40;95.10;;;;;;10442789;28;20202;-77
2024/02/25 05:12:31;;;;;;;0.60;0.60;;;6.40;95.20;;;;;;10437744;28;20287;-77
2024/02/25 05:17:33;;;;;;;0.70;0.70;;;6.40;95.10;;;;;;10425960;28;20226;-77
2024/02/25 05:22:37;;;;;;;0.70;0.70;;;6.40;95.00;;;;;;10436207;28;20225;-77
2024/02/25 05:27:39;;;;;;;0.60;0.60;;;6.40;95.10;;;;;;10442527;28;20473;-77
2024/02/25 05:32:43;;;;;;;0.60;0.60;;;6.30;95.30;;;;;;10434386;28;20225;-77
2024/02/25 05:37:47;;;;;;;0.97;0.97;;;6.30;95.40;;;;;;10446178;28;20267;-77
2024/02/25 05:42:49;;;;;;;0.60;0.60;;;6.20;95.40;;;;;;10433491;28;20217;-77
2024/02/25 05:47:52;;;;;;;0.60;0.60;;;6.30;95.30;;;;;;10433716;28;20197;-77
2024/02/25 05:52:55;;;;;;;0.70;0.70;;;6.20;95.30;;;;;;10429447;28;20268;-77
2024/02/25 05:57:58;;;;;;;0.70;0.70;;;6.10;95.30;;;;;;10441662;28;20226;-77
2024/02/25 06:03:00;;;;;;;0.70;0.70;;;6.10;95.30;;;;;;10433918;28;20226;-77
2024/02/25 06:08:04;;;;;;;0.60;0.60;;;6.00;95.30;;;;;;10442261;28;20193;-77
2024/02/25 06:13:07;;;;;;;1.00;1.00;;;5.90;95.40;;;;;;10433481;28;20280;-77
2024/02/25 06:18:10;;;;;;;1.00;1.00;;;5.80;95.30;;;;;;10433326;28;20218;-77
2024/02/25 06:23:14;;;;;;;0.70;0.70;;;5.70;95.40;;;;;;10433444;28;20225;-77
2024/02/25 06:28:16;;;;;;;0.70;0.70;;;5.50;95.40;;;;;;10439866;28;20217;-77
2024/02/25 06:33:19;;;;;;;0.80;0.80;;;5.30;95.20;;;;;;10425735;28;20230;-77
2024/02/25 06:38:22;;;;;;;0.97;0.97;;;5.20;95.60;;;;;;10457298;28;20224;-77
2024/02/25 06:43:25;;;;;;;0.70;0.70;;;5.10;95.80;;;;;;10441826;28;20571;-77
2024/02/25 06:48:28;;;;;;;0.97;0.97;;;5.00;96.10;;;;;;10439669;28;20201;-77
2024/02/25 06:53:33;;;;;;;0.60;0.60;;;5.00;96.10;;;;;;10439014;28;20251;-77
2024/02/25 06:58:36;;;;;;;0.70;0.70;;;5.00;96.30;;;;;;10447889;28;20235;-77
2024/02/25 07:03:38;;;;;;;0.80;0.80;;;5.00;96.20;;;;;;10439503;28;20699;-77
2024/02/25 07:08:42;;;;;;;0.87;0.87;;;5.10;96.30;;;;;;10448297;28;20186;-77
2024/02/25 07:13:45;;;;;;;0.70;0.70;;;5.10;96.60;;;;;;10439505;28;20221;-77
2024/02/25 07:18:47;;;;;;;0.70;0.70;;;5.20;96.70;;;;;;10439723;28;20660;-77
2024/02/25 07:23:51;;;;;;;0.90;0.90;;;5.30;97.00;;;;;;10439388;28;20217;-77
2024/02/25 07:28:53;;;;;;;0.90;0.90;;;5.60;96.70;;;;;;10447433;28;20228;-77
2024/02/25 07:33:55;;;;;;;0.70;0.70;;;5.70;96.90;;;;;;10439621;28;20224;-77
2024/02/25 07:38:59;;;;;;;0.90;0.90;;;5.80;97.10;;;;;;10453248;28;20760;-77
2024/02/25 07:44:01;;;;;;;1.20;1.20;;;6.00;97.20;;;;;;10434673;28;20232;-77
2024/02/25 07:49:04;;;;;;;1.00;1.00;;;6.30;97.20;;;;;;10440204;28;20193;-77
2024/02/25 07:54:07;;;;;;;1.00;1.00;;;6.50;97.20;;;;;;10441801;28;20789;-77
2024/02/25 07:59:10;;;;;;;0.80;0.80;;;6.80;96.80;;;;;;10444192;28;20217;-77
2024/02/25 08:04:12;;;;;;;0.70;0.70;;;7.10;96.80;;;;;;10439986;28;20221;-77
2024/02/25 08:09:16;;;;;;;0.80;0.80;;;7.30;96.40;;;;;;10446683;28;20643;-77
2024/02/25 08:14:20;;;;;;;0.50;0.50;;;7.50;95.40;;;;;;10435724;28;20274;-77
2024/02/25 08:19:23;;;;;;;0.60;0.60;;;7.70;95.30;;;;;;10421195;28;20225;-78
2024/02/25 08:24:27;;;;;;;0.80;0.80;;;7.90;94.30;;;;;;10441380;28;20205;-79
2024/02/25 08:29:29;;;;;;;0.60;0.60;;;8.10;94.00;;;;;;10445984;28;20216;-77
2024/02/25 08:34:31;;;;;;;0.50;0.50;;;8.30;93.50;;;;;;10437658;28;20586;-78
2024/02/25 08:39:35;;;;;;;0.50;0.50;;;8.50;93.20;;;;;;10447404;28;20279;-77
2024/02/25 08:44:37;;;;;;;0.40;0.40;;;8.60;93.00;;;;;;10457038;28;20734;-77
2024/02/25 08:49:40;;;;;;;0.40;0.40;;;8.80;92.00;;;;;;10447210;28;20209;-77
2024/02/25 08:54:44;;;;;;;0.40;0.40;;;9.00;92.20;;;;;;10433046;28;20575;-77
2024/02/25 08:59:46;;;;;;;0.50;0.50;;;9.20;91.50;;;;;;10443784;28;20228;-77
2024/02/25 09:04:50;;;;;;;0.50;0.50;;;9.30;92.00;;;;;;10429219;28;20219;-78
2024/02/25 09:09:54;;;;;;;0.50;0.50;;;9.40;92.00;;;;;;10419987;28;20194;-77
2024/02/25 09:14:56;;;;;;;0.60;0.60;;;9.60;91.40;;;;;;10427399;28;20601;-77
2024/02/25 09:19:59;;;;;;;0.50;0.50;;;9.60;91.30;;;;;;10419193;28;20214;-77
2024/02/25 09:25:03;;;;;;;0.60;0.60;;;9.70;91.10;;;;;;10420262;28;20739;-77
2024/02/25 09:30:07;;;;;;;0.50;0.50;;;9.70;91.00;;;;;;10419298;28;20190;-77
2024/02/25 09:35:09;;;;;;;0.50;0.50;;;9.70;91.00;;;;;;10423254;28;20279;-77
2024/02/25 09:40:14;;;;;;;0.60;0.60;;;9.80;90.60;;;;;;10416364;28;20225;-77
2024/02/25 09:45:21;;;;;;;0.50;0.50;;;9.90;90.00;;;;;;10423142;28;20222;-77
2024/02/25 09:50:24;;;;;;;0.53;0.53;;;9.90;90.50;;;;;;10421730;28;20194;-77
2024/02/25 09:55:28;;;;;;;0.53;0.53;;;9.90;90.60;;;;;;10423635;28;20279;-77
2024/02/25 10:00:30;;;;;;;0.60;0.60;;;10.10;89.70;;;;;;10427270;28;20229;-77
2024/02/25 10:05:33;;;;;;;0.50;0.50;;;10.20;88.90;;;;;;10408315;28;20216;-78
2024/02/25 10:10:37;;;;;;;0.50;0.50;;;10.30;88.50;;;;;;10428416;28;20254;-78
2024/02/25 10:15:40;;;;;;;0.60;0.60;;;10.50;88.60;;;;;;10431373;28;20252;-77
2024/02/25 10:20:42;;;;;;;0.50;0.50;;;10.60;87.60;;;;;;10430564;28;20761;-78
2024/02/25 10:25:46;;;;;;;0.40;0.40;;;10.40;86.20;;;;;;10415862;28;20229;-77
2024/02/25 10:30:58;;;;;;;0.40;0.40;;;10.20;87.20;;;;;;10422128;28;20193;-76
2024/02/25 10:36:09;;;;;;;0.60;0.60;;;10.30;87.00;;;;;;10439923;28;20263;-76
2024/02/25 10:41:14;;;;;;;0.47;0.47;;;10.20;87.30;;;;;;10426229;28;20221;-76
2024/02/25 10:46:27;;;;;;;0.50;0.50;;;10.10;86.30;;;;;;10430578;28;20213;-76
2024/02/25 10:51:30;;;;;;;0.40;0.40;;;10.10;85.40;;;;;;10412349;28;20229;-76
2024/02/25 10:56:35;;;;;;;0.50;0.50;;;10.00;84.40;;;;;;10430724;28;20243;-76
2024/02/25 11:01:38;;;;;;;0.50;0.50;;;10.10;82.70;;;;;;10415143;28;20237;-76
2024/02/25 11:06:41;;;;;;;0.50;0.50;;;10.00;82.70;;;;;;10423561;28;20212;-76
2024/02/25 11:11:45;;;;;;;0.40;0.40;;;10.10;81.60;;;;;;10413937;28;20221;-77
2024/02/25 11:16:48;;;;;;;0.60;0.60;;;10.00;82.90;;;;;;10431014;28;20202;-77
2024/02/25 11:21:53;;;;;;;0.70;0.70;;;10.00;83.00;;;;;;10440418;28;20702;-77
2024/02/25 11:26:57;;;;;;;0.60;0.60;;;10.10;82.40;;;;;;10429334;28;20699;-77
2024/02/25 11:32:00;;;;;;;0.50;0.50;;;10.00;83.40;;;;;;10426835;28;20206;-77
2024/02/25 11:37:04;;;;;;;0.50;0.50;;;10.10;83.00;;;;;;10426538;28;20617;-77
2024/02/25 11:42:08;;;;;;;0.50;0.50;;;10.20;82.40;;;;;;10423985;28;20710;-77
2024/02/25 11:47:11;;;;;;;0.40;0.40;;;10.30;82.30;;;;;;10410441;28;20202;-77
2024/02/25 11:52:14;;;;;;;0.60;0.60;;;10.20;83.60;;;;;;10417487;28;20241;-77
2024/02/25 11:57:18;;;;;;;0.40;0.40;;;10.30;83.30;;;;;;10418149;28;20468;-77
2024/02/25 12:02:21;;;;;;;0.60;0.60;;;10.40;83.90;;;;;;10421688;28;20229;-76
2024/02/25 12:07:23;;;;;;;0.50;0.50;;;10.40;84.30;;;;;;10434249;28;20278;-77
2024/02/25 12:12:27;;;;;;;0.50;0.50;;;10.50;81.90;;;;;;10440838;28;20217;-77
2024/02/25 12:17:29;;;;;;;0.50;0.50;;;10.60;77.70;;;;;;10435979;28;20224;-77
2024/02/25 12:22:33;;;;;;;0.60;0.60;;;10.70;76.60;;;;;;10439099;28;20256;-77
2024/02/25 12:27:37;;;;;;;0.70;0.70;;;10.80;77.10;;;;;;10426673;28;20223;-77
2024/02/25 12:32:40;;;;;;;0.50;0.50;;;11.00;76.70;;;;;;10439650;28;20209;-77
2024/02/25 12:37:44;;;;;;;0.50;0.50;;;11.20;75.90;;;;;;10441195;28;20206;-77
2024/02/25 12:42:48;;;;;;;0.57;0.57;;;11.20;76.80;;;;;;10434432;28;20222;-77
2024/02/25 12:47:51;;;;;;;0.50;0.50;;;11.30;75.70;;;;;;10433653;28;20213;-77
2024/02/25 12:52:53;;;;;;;0.50;0.50;;;11.50;70.20;;;;;;10430926;28;20225;-77
2024/02/25 12:57:57;;;;;;;0.60;0.60;;;11.50;71.40;;;;;;10446712;28;20577;-77
2024/02/25 13:02:59;;;;;;;0.40;0.40;;;11.50;71.70;;;;;;10431927;28;20217;-77
2024/02/25 13:08:02;;;;;;;0.50;0.50;;;11.40;72.90;;;;;;10438047;28;20202;-78
2024/02/25 13:13:06;;;;;;;0.50;0.50;;;11.40;71.40;;;;;;10428464;28;20209;-78
2024/02/25 13:18:08;;;;;;;0.50;0.50;;;11.30;74.20;;;;;;10444094;28;20259;-79
2024/02/25 13:23:12;;;;;;;0.60;0.60;;;11.20;73.80;;;;;;10435688;28;20218;-81
2024/02/25 13:28:16;;;;;;;0.50;0.50;;;11.20;73.50;;;;;;10428148;28;20674;-80
2024/02/25 13:33:20;;;;;;;0.43;0.43;;;11.10;73.30;;;;;;10417797;28;20268;-79
2024/02/25 13:38:22;;;;;;;0.50;0.50;;;11.20;72.70;;;;;;10419386;28;20267;-80
2024/02/25 13:43:26;;;;;;;0.50;0.50;;;11.30;72.90;;;;;;10426169;28;20719;-80
2024/02/25 13:48:28;;;;;;;0.53;0.53;;;11.30;72.40;;;;;;10427236;28;20201;-79
2024/02/25 13:53:31;;;;;;;0.50;0.50;;;11.30;72.80;;;;;;10430909;28;20240;-80
2024/02/25 13:58:35;;;;;;;0.60;0.60;;;11.30;74.00;;;;;;10434803;28;20209;-80
2024/02/25 14:03:37;;;;;;;0.60;0.60;;;11.30;73.50;;;;;;10437194;28;20643;-79
2024/02/25 14:08:39;;;;;;;0.50;0.50;;;11.30;73.80;;;;;;10443937;28;20215;-80
2024/02/25 14:13:43;;;;;;;0.50;0.50;;;11.40;73.10;;;;;;10444245;28;20228;-79
2024/02/25 14:18:45;;;;;;;0.67;0.67;;;11.50;71.60;;;;;;10432151;28;20993;-80
2024/02/25 14:23:48;;;;;;;0.60;0.60;;;11.60;73.10;;;;;;10449703;28;20279;-80
2024/02/25 14:28:51;;;;;;;0.60;0.60;;;11.60;76.70;;;;;;10451132;28;20951;-80
2024/02/25 14:33:54;;;;;;;0.60;0.60;;;11.60;72.90;;;;;;10445258;28;20213;-79
2024/02/25 14:38:56;;;;;;;0.80;0.80;;;11.80;71.40;;;;;;10448151;28;20193;-80
2024/02/25 14:44:00;;;;;;;0.80;0.80;;;11.80;71.40;;;;;;10442913;28;20772;-79
2024/02/25 14:49:04;;;;;;;0.90;0.90;;;11.80;74.70;;;;;;10440854;28;20202;-79
2024/02/25 14:54:06;;;;;;;0.60;0.60;;;11.80;70.80;;;;;;10447285;28;20224;-79
2024/02/25 14:59:12;;;;;;;0.80;0.80;;;11.70;71.30;;;;;;10462378;28;20205;-81
2024/02/25 15:04:14;;;;;;;0.60;0.60;;;11.80;70.60;;;;;;10462437;28;20232;-81
2024/02/25 15:09:16;;;;;;;0.60;0.60;;;11.80;70.50;;;;;;10455778;28;20610;-81
2024/02/25 15:14:20;;;;;;;0.40;0.40;;;11.80;70.40;;;;;;10444037;28;20220;-81
2024/02/25 15:19:23;;;;;;;0.77;0.77;;;11.80;71.30;;;;;;10448463;28;20656;-81
2024/02/25 15:24:25;;;;;;;0.60;0.60;;;11.80;70.90;;;;;;10450589;28;20224;-81
2024/02/25 15:29:29;;;;;;;0.60;0.60;;;11.80;72.20;;;;;;10453121;28;20194;-81
2024/02/25 15:34:32;;;;;;;0.50;0.50;;;11.90;70.60;;;;;;10457208;28;20221;-81
2024/02/25 15:39:37;;;;;;;0.70;0.70;;;11.90;68.80;;;;;;10451106;28;20646;-81
2024/02/25 15:44:43;;;;;;;0.60;0.60;;;12.00;69.20;;;;;;10458726;28;20220;-81
2024/02/25 15:49:45;;;;;;;0.70;0.70;;;12.00;69.10;;;;;;10445485;28;20834;-81
2024/02/25 15:54:47;;;;;;;0.60;0.60;;;12.00;69.40;;;;;;10453483;28;20229;-81
2024/02/25 15:59:51;;;;;;;0.60;0.60;;;12.00;70.30;;;;;;10480055;28;20577;-81
2024/02/25 16:04:53;;;;;;;0.50;0.50;;;12.00;70.70;;;;;;10482024;28;20227;-81
2024/02/25 16:09:56;;;;;;;0.70;0.70;;;11.90;72.40;;;;;;10488253;28;20244;-81
2024/02/25 16:15:02;;;;;;;0.60;0.60;;;11.80;74.20;;;;;;10477740;28;20217;-81
2024/02/25 16:20:08;;;;;;;0.40;0.40;;;11.60;75.20;;;;;;10486118;28;20213;-81
2024/02/25 16:25:16;;;;;;;0.60;0.60;;;11.50;75.60;;;;;;10476886;28;20226;-83
2024/02/25 16:30:20;;;;;;;0.50;0.50;;;11.30;77.20;;;;;;10445387;28;20198;-80
2024/02/25 16:35:22;;;;;;;0.40;0.40;;;11.10;78.10;;;;;;10458045;28;20280;-81
2024/02/25 16:40:26;;;;;;;0.50;0.50;;;11.00;78.80;;;;;;10461164;28;20213;-81
2024/02/25 16:45:29;;;;;;;0.40;0.40;;;10.80;79.30;;;;;;10455763;28;20213;-81
2024/02/25 16:50:32;;;;;;;0.50;0.50;;;10.70;79.70;;;;;;10430887;28;20186;-81
2024/02/25 16:55:34;;;;;;;0.40;0.40;;;10.50;80.10;;;;;;10445556;28;20229;-81
2024/02/25 17:00:38;;;;;;;0.50;0.50;;;10.40;80.40;;;;;;10435385;28;20752;-81
2024/02/25 17:05:40;;;;;;;0.50;0.50;;;10.20;80.90;;;;;;10451142;28;20616;-81
2024/02/25 17:10:44;;;;;;;0.50;0.50;;;10.10;82.10;;;;;;10449791;28;20251;-81
2024/02/25 17:15:48;;;;;;;0.70;0.70;;;10.00;81.70;;;;;;10453936;28;20235;-81
2024/02/25 17:20:50;;;;;;;0.50;0.50;;;9.90;83.30;;;;;;10447739;28;20274;-81
2024/02/25 17:25:53;;;;;;;0.50;0.50;;;9.80;83.30;;;;;;10444794;28;20278;-81
2024/02/25 17:30:56;;;;;;;0.57;0.57;;;9.80;83.70;;;;;;10451518;28;20212;-81
2024/02/25 17:35:59;;;;;;;0.40;0.40;;;9.70;84.20;;;;;;10449264;28;21408;-80
2024/02/25 17:41:01;;;;;;;0.57;0.57;;;9.70;84.70;;;;;;10448929;28;20206;-81
2024/02/25 17:46:05;;;;;;;0.70;0.70;;;9.60;84.80;;;;;;10445826;28;20629;-81
2024/02/25 17:51:07;;;;;;;0.60;0.60;;;9.60;85.00;;;;;;10452280;28;20224;-81
2024/02/25 17:56:10;;;;;;;0.60;0.60;;;9.60;85.10;;;;;;10448581;28;20217;-81
2024/02/25 18:01:14;;;;;;;0.50;0.50;;;9.60;85.60;;;;;;10453153;28;20642;-81
2024/02/25 18:06:16;;;;;;;0.60;0.60;;;9.60;85.70;;;;;;10445979;28;20213;-81
2024/02/25 18:11:18;;;;;;;0.63;0.63;;;9.50;86.10;;;;;;10440382;28;20205;-81
2024/02/25 18:16:22;;;;;;;0.50;0.50;;;9.50;86.30;;;;;;10428449;28;20198;-81
2024/02/25 18:21:24;;;;;;;0.47;0.47;;;9.50;86.60;;;;;;10440658;28;20240;-81
2024/02/25 18:26:27;;;;;;;0.57;0.57;;;9.40;86.40;;;;;;10440248;28;20637;-82
2024/02/25 18:31:30;;;;;;;0.50;0.50;;;9.30;86.60;;;;;;10450013;28;20259;-81
2024/02/25 18:36:33;;;;;;;0.40;0.40;;;9.30;87.10;;;;;;10442897;28;20248;-81
2024/02/25 18:41:35;;;;;;;0.40;0.40;;;9.30;87.50;;;;;;10449433;28;20230;-81
2024/02/25 18:46:39;;;;;;;0.50;0.50;;;9.10;87.30;;;;;;10446258;28;20675;-81
2024/02/25 18:51:42;;;;;;;0.40;0.40;;;9.00;87.10;;;;;;10447989;28;20232;-81
2024/02/25 18:56:46;;;;;;;0.47;0.47;;;8.90;87.70;;;;;;10447053;28;20201;-81
2024/02/25 19:01:50;;;;;;;0.40;0.40;;;8.80;87.80;;;;;;10446743;28;20990;-81
2024/02/25 19:06:55;;;;;;;0.40;0.40;;;8.70;87.90;;;;;;10443067;28;20201;-83
2024/02/25 19:11:57;;;;;;;0.50;0.50;;;8.70;88.10;;;;;;10448043;28;20284;-82
2024/02/25 19:17:01;;;;;;;0.50;0.50;;;8.50;88.20;;;;;;10455570;28;20185;-83
2024/02/25 19:22:04;;;;;;;0.60;0.60;;;8.50;88.60;;;;;;10444381;28;20225;-83
2024/02/25 19:27:06;;;;;;;0.60;0.60;;;8.40;88.90;;;;;;10450562;28;20197;-83
2024/02/25 19:32:10;;;;;;;0.60;0.60;;;8.30;89.00;;;;;;10428819;28;20678;-83
2024/02/25 19:37:14;;;;;;;0.50;0.50;;;8.30;88.60;;;;;;10455619;28;20564;-82
2024/02/25 19:42:17;;;;;;;0.67;0.67;;;8.30;88.90;;;;;;10444044;28;20210;-83
2024/02/25 19:47:23;;;;;;;0.50;0.50;;;8.30;88.80;;;;;;10458620;28;20205;-82
2024/02/25 19:52:26;;;;;;;0.50;0.50;;;8.30;88.80;;;;;;10438741;28;20236;-82
2024/02/25 19:57:29;;;;;;;0.40;0.40;;;8.30;89.00;;;;;;10452137;28;20255;-83
2024/02/25 20:02:33;;;;;;;0.50;0.50;;;8.30;89.20;;;;;;10447628;28;20218;-83
2024/02/25 20:07:35;;;;;;;0.60;0.60;;;8.20;89.60;;;;;;10449263;28;20219;-83
2024/02/25 20:12:38;;;;;;;0.50;0.50;;;8.20;89.90;;;;;;10453640;28;20214;-83
2024/02/25 20:17:42;;;;;;;0.60;0.60;;;8.10;90.40;;;;;;10430435;28;20200;-81
2024/02/25 20:22:44;;;;;;;0.60;0.60;;;8.10;90.30;;;;;;10463568;28;20225;-82
2024/02/25 20:27:46;;;;;;;0.60;0.60;;;8.10;90.60;;;;;;10448236;28;20754;-82
2024/02/25 20:32:50;;;;;;;0.50;0.50;;;8.10;90.70;;;;;;10466110;28;20217;-83
2024/02/25 20:37:53;;;;;;;0.50;0.50;;;8.10;90.70;;;;;;10462972;28;20259;-83
2024/02/25 20:42:55;;;;;;;0.60;0.60;;;8.10;90.80;;;;;;10463308;28;20590;-83
2024/02/25 20:48:01;;;;;;;0.70;0.70;;;8.10;90.90;;;;;;10438683;28;20666;-83
2024/02/25 20:53:04;;;;;;;0.60;0.60;;;8.10;91.00;;;;;;10441475;28;20256;-83
2024/02/25 20:58:08;;;;;;;0.60;0.60;;;8.10;91.20;;;;;;10454454;28;20201;-83
2024/02/25 21:03:12;;;;;;;0.63;0.63;;;8.00;91.20;;;;;;10453701;28;20283;-83
2024/02/25 21:08:14;;;;;;;0.70;0.70;;;8.10;91.50;;;;;;10444177;28;20198;-84
2024/02/25 21:13:17;;;;;;;0.70;0.70;;;8.10;91.70;;;;;;10430874;28;20888;-84
2024/02/25 21:18:21;;;;;;;0.70;0.70;;;8.10;91.60;;;;;;10422207;28;20206;-83
2024/02/25 21:23:23;;;;;;;0.70;0.70;;;8.20;91.70;;;;;;10422540;28;20746;-83
2024/02/25 21:28:26;;;;;;;0.50;0.50;;;8.30;91.80;;;;;;10445459;28;20201;-83
2024/02/25 21:33:29;;;;;;;0.40;0.40;;;8.30;91.80;;;;;;10418022;28;20222;-83
2024/02/25 21:38:32;;;;;;;0.50;0.50;;;8.40;91.90;;;;;;10412382;28;20276;-83
2024/02/25 21:43:35;;;;;;;0.40;0.40;;;8.40;91.90;;;;;;10436440;28;20268;-83
2024/02/25 21:48:39;;;;;;;0.57;0.57;;;8.50;92.00;;;;;;10435123;28;20202;-84
2024/02/25 21:53:41;;;;;;;0.47;0.47;;;8.60;92.10;;;;;;10427647;28;20229;-83
2024/02/25 21:58:44;;;;;;;0.60;0.60;;;8.60;92.10;;;;;;10441287;28;20201;-84
2024/02/25 22:03:47;;;;;;;0.50;0.50;;;8.70;92.20;;;;;;10439796;28;20306;-84
2024/02/25 22:08:50;;;;;;;0.53;0.53;;;8.80;92.20;;;;;;10434799;28;20667;-84
2024/02/25 22:13:52;;;;;;;0.47;0.47;;;8.90;92.10;;;;;;10437164;28;20206;-84
2024/02/25 22:18:57;;;;;;;0.50;0.50;;;9.00;91.90;;;;;;10432524;28;20198;-84
2024/02/25 22:23:59;;;;;;;0.50;0.50;;;9.10;91.80;;;;;;10437416;28;20707;-84
2024/02/25 22:29:02;;;;;;;0.40;0.40;;;9.20;91.80;;;;;;10438824;28;20194;-84
2024/02/25 22:34:05;;;;;;;0.50;0.50;;;9.30;92.10;;;;;;10435087;28;20213;-83
2024/02/25 22:39:08;;;;;;;0.50;0.50;;;9.40;91.80;;;;;;10427656;28;20194;-84
2024/02/25 22:44:10;;;;;;;0.50;0.50;;;9.50;91.90;;;;;;10426383;28;20230;-83
2024/02/25 22:49:14;;;;;;;0.40;0.40;;;9.50;91.90;;;;;;10434063;28;20202;-84
2024/02/25 22:54:16;;;;;;;0.43;0.43;;;9.60;91.70;;;;;;10432089;28;20216;-84
2024/02/25 22:59:19;;;;;;;0.40;0.40;;;9.60;91.00;;;;;;10435107;28;20240;-83
2024/02/25 23:04:23;;;;;;;0.40;0.40;;;9.70;90.60;;;;;;10420526;28;20811;-83
2024/02/25 23:09:27;;;;;;;0.63;0.63;;;9.70;90.00;;;;;;10442430;28;20201;-83
2024/02/25 23:14:29;;;;;;;0.50;0.50;;;9.70;90.10;;;;;;10443923;28;20691;-83
2024/02/25 23:19:33;;;;;;;0.60;0.60;;;9.80;89.70;;;;;;10457118;28;20193;-83
2024/02/25 23:24:35;;;;;;;0.60;0.60;;;9.90;90.00;;;;;;10443818;28;20225;-83
2024/02/25 23:29:37;;;;;;;0.40;0.40;;;9.90;89.70;;;;;;10444294;28;20666;-83
2024/02/25 23:34:41;;;;;;;0.50;0.50;;;9.90;89.90;;;;;;10448080;28;20268;-83
2024/02/25 23:39:43;;;;;;;0.60;0.60;;;9.90;89.70;;;;;;10443093;28;20254;-83
2024/02/25 23:44:47;;;;;;;0.60;0.60;;;9.80;90.30;;;;;;10453848;28;20646;-83
2024/02/25 23:49:53;;;;;;;0.50;0.50;;;9.80;91.00;;;;;;10452592;28;20742;-83
2024/02/25 23:54:56;;;;;;;0.60;0.60;;;9.80;91.20;;;;;;10454886;28;20225;-83
2024/02/25 23:59:58;;;;;;;0.60;0.60;;;9.70;91.60;;;;;;10438591;28;20190;-83
